Time;durP1;ratioP1;P1;durP2;ratioP2;P2;SDS_P1;SDS_P2;PMS_P1;PMS_P2;Temp;Humidity;BMP_temperature;BMP_pressure;BME280_temperature;BME280_humidity;BME280_pressure;Samples;Min_cycle;Max_cycle;Signal;HPM_P1;HPM_P2
2023/01/19 00:00:03;;;;;;;;;;;4.10;85.30;;;2.87;68.75;99116.84;6151876;23;19935;-74
2023/01/19 00:02:33;;;;;;;;;;;4.10;85.50;;;2.92;68.92;99117.09;6151614;23;20343;-74
2023/01/19 00:05:00;;;;;;;;;;;4.10;85.70;;;2.93;69.06;99118.72;6150971;23;19916;-73
2023/01/19 00:07:29;;;;;;;;;;;4.10;85.70;;;2.88;69.43;99119.31;6150702;23;19927;-74
2023/01/19 00:09:56;;;;;;;;;;;4.10;85.80;;;2.87;69.39;99117.66;6150634;23;19925;-73
2023/01/19 00:12:23;;;;;;;;;;;4.10;85.80;;;2.86;69.26;99121.31;6152004;23;20047;-73
2023/01/19 00:14:51;;;;;;;;;;;4.00;85.70;;;2.86;69.21;99109.97;6151312;23;19916;-73
2023/01/19 00:17:20;;;;;;;;;;;4.00;85.80;;;2.83;69.81;99116.44;6149679;23;20314;-73
2023/01/19 00:19:47;;;;;;;;;;;4.00;86.00;;;2.84;69.58;99137.31;6150474;23;19920;-74
2023/01/19 00:22:14;;;;;;;;;;;4.00;86.10;;;2.87;69.61;99122.94;6149918;23;19924;-74
2023/01/19 00:24:43;;;;;;;;;;;4.00;86.10;;;2.91;69.54;99120.72;6148629;23;19921;-73
2023/01/19 00:27:10;;;;;;;;;;;4.00;86.20;;;2.89;69.81;99128.84;6150872;23;19917;-73
2023/01/19 00:29:37;;;;;;;;;;;4.00;86.20;;;2.87;69.48;99112.41;6149831;23;19917;-74
2023/01/19 00:32:06;;;;;;;;;;;4.00;86.30;;;2.87;69.72;99116.84;6149808;23;19967;-73
2023/01/19 00:34:38;;;;;;;;;;;4.00;86.30;;;2.86;69.62;99113.41;6151264;23;19920;-73
2023/01/19 00:37:05;;;;;;;;;;;4.00;86.30;;;2.86;69.46;99131.03;6150281;23;19916;-73
2023/01/19 00:39:33;;;;;;;;;;;4.00;86.30;;;2.89;70.10;99142.00;6150715;23;20519;-73
2023/01/19 00:44:45;;;;;;;;;;;4.00;86.30;;;2.89;69.79;99123.56;6150249;23;19916;-73
2023/01/19 00:47:13;;;;;;;;;;;4.00;86.30;;;2.90;69.66;99141.00;6150436;23;19927;-73
2023/01/19 00:49:40;;;;;;;;;;;4.10;86.50;;;2.96;69.73;99134.94;6149415;23;19999;-73
2023/01/19 00:52:08;;;;;;;;;;;4.10;86.60;;;3.00;69.83;99122.19;6151879;23;19917;-73
2023/01/19 00:54:35;;;;;;;;;;;4.10;86.30;;;2.98;69.79;99118.97;6149690;23;19920;-73
2023/01/19 00:57:03;;;;;;;;;;;4.10;86.30;;;2.99;69.41;99137.19;6149563;23;19921;-73
2023/01/19 00:59:30;;;;;;;;;;;4.10;86.40;;;3.01;69.53;99135.16;6151124;23;19921;-73
2023/01/19 01:01:57;;;;;;;;;;;4.10;86.30;;;3.01;69.54;99129.09;6151473;23;19924;-73
2023/01/19 01:04:27;;;;;;;;;;;4.10;86.30;;;2.98;69.62;99132.13;6150553;23;19948;-73
2023/01/19 01:06:56;;;;;;;;;;;4.10;86.30;;;2.97;69.77;99128.66;6150973;23;20003;-73
2023/01/19 01:09:23;;;;;;;;;;;4.10;86.30;;;2.95;69.65;99121.97;6149143;23;19917;-73
2023/01/19 01:11:50;;;;;;;;;;;4.10;86.30;;;2.88;69.70;99124.59;6151241;23;19948;-73
2023/01/19 01:14:18;;;;;;;;;;;4.10;86.30;;;2.88;69.96;99124.59;6148176;23;19947;-73
2023/01/19 01:16:45;;;;;;;;;;;4.00;86.30;;;2.89;69.87;99136.72;6150403;23;20391;-73
2023/01/19 01:19:14;;;;;;;;;;;4.00;86.30;;;2.88;69.91;99143.00;6148318;23;20371;-73
2023/01/19 01:21:42;;;;;;;;;;;4.00;86.40;;;2.86;69.71;99129.22;6151109;23;19917;-73
2023/01/19 01:24:09;;;;;;;;;;;4.00;86.50;;;2.88;69.89;99126.38;6149356;23;20340;-73
2023/01/19 01:26:36;;;;;;;;;;;4.00;86.50;;;2.93;69.90;99129.25;6150140;23;19923;-73
2023/01/19 01:29:04;;;;;;;;;;;4.00;86.50;;;2.89;70.00;99126.22;6148796;23;19924;-73
2023/01/19 01:31:31;;;;;;;;;;;4.10;86.50;;;2.93;69.72;99137.97;6149288;23;20233;-73
2023/01/19 01:33:58;;;;;;;;;;;4.10;86.60;;;2.96;69.91;99142.84;6148953;23;19920;-73
2023/01/19 01:36:27;;;;;;;;;;;4.10;86.50;;;2.95;69.80;99138.59;6150552;23;19924;-73
2023/01/19 01:38:56;;;;;;;;;;;4.10;86.50;;;2.88;69.93;99140.38;6150905;23;19920;-73
2023/01/19 01:41:24;;;;;;;;;;;4.10;86.50;;;2.96;69.74;99136.75;6150420;23;19920;-73
2023/01/19 01:43:55;;;;;;;;;;;4.10;86.40;;;2.93;69.79;99131.88;6150871;23;19916;-73
2023/01/19 01:46:22;;;;;;;;;;;4.10;86.30;;;2.91;69.66;99132.06;6150848;23;19920;-73
2023/01/19 01:48:52;;;;;;;;;;;4.00;86.40;;;2.88;70.03;99137.75;6149036;23;20072;-73
2023/01/19 01:51:24;;;;;;;;;;;4.00;86.60;;;2.91;69.92;99134.72;6151078;23;19935;-73
2023/01/19 01:53:56;;;;;;;;;;;4.00;86.50;;;2.92;70.02;99144.22;6151498;23;20232;-73
2023/01/19 01:56:32;;;;;;;;;;;4.10;86.70;;;2.96;69.74;99147.28;6150832;23;19923;-73
2023/01/19 01:59:01;;;;;;;;;;;4.10;86.60;;;2.96;69.96;99128.84;6150135;23;19947;-73
2023/01/19 02:04:12;;;;;;;;;;;4.10;86.50;;;2.88;70.07;99121.94;6150014;23;19916;-73
2023/01/19 02:14:55;;;;;;;;;;;4.00;86.70;;;2.93;70.05;99134.50;6148375;23;19927;-73
2023/01/19 02:17:22;;;;;;;;;;;4.10;86.70;;;2.91;70.05;99133.91;6150741;23;20324;-73
2023/01/19 02:19:49;;;;;;;;;;;4.00;86.60;;;2.93;70.05;99124.81;6149636;23;19920;-73
2023/01/19 02:22:21;;;;;;;;;;;4.10;86.80;;;2.93;69.83;99124.81;6149117;23;20003;-73
2023/01/19 02:24:49;;;;;;;;;;;4.10;86.50;;;2.89;70.03;99120.13;6151327;23;19924;-73
2023/01/19 02:27:16;;;;;;;;;;;4.20;86.60;;;2.81;70.53;99131.63;6150294;23;19917;-73
2023/01/19 02:29:43;;;;;;;;;;;4.00;86.50;;;2.79;70.63;99125.75;6149145;23;19920;-73
2023/01/19 02:32:10;;;;;;;;;;;4.00;86.80;;;2.84;70.71;99123.34;6151328;23;19927;-73
2023/01/19 02:34:37;;;;;;;;;;;4.00;86.90;;;2.84;70.43;99121.53;6148813;23;19916;-72
2023/01/19 02:37:07;;;;;;;;;;;4.00;86.70;;;2.84;70.23;99120.72;6150680;23;19917;-73
2023/01/19 02:39:36;;;;;;;;;;;4.00;86.60;;;2.83;70.30;99119.91;6149447;23;20677;-72
2023/01/19 02:42:07;;;;;;;;;;;4.00;86.70;;;2.79;70.57;99121.28;6150717;23;19924;-74
2023/01/19 02:44:35;;;;;;;;;;;4.00;86.70;;;2.79;70.59;99116.03;6152427;23;19964;-73
2023/01/19 02:47:03;;;;;;;;;;;4.00;86.80;;;2.86;70.66;99118.69;6151514;23;20351;-73
2023/01/19 02:49:30;;;;;;;;;;;4.10;86.90;;;2.94;70.24;99118.53;6149778;23;19920;-72
2023/01/19 02:51:57;;;;;;;;;;;4.10;87.00;;;2.92;70.15;99125.78;6151522;23;19924;-72
2023/01/19 02:54:41;;;;;;;;;;;4.10;86.70;;;2.95;69.90;99112.25;6152949;23;19916;-72
2023/01/19 02:57:28;;;;;;;;;;;4.10;86.70;;;2.89;70.02;99110.41;6152238;23;19916;-73
2023/01/19 03:00:08;;;;;;;;;;;4.10;86.60;;;2.87;70.01;99112.41;6152471;23;20310;-73
2023/01/19 03:02:45;;;;;;;;;;;4.00;86.50;;;2.84;69.93;99111.00;6152398;23;19955;-72
2023/01/19 03:05:29;;;;;;;;;;;4.00;86.50;;;2.88;70.52;99111.41;6151351;23;19938;-75
2023/01/19 03:08:02;;;;;;;;;;;4.00;86.80;;;2.94;70.38;99102.72;6152315;23;20015;-74
2023/01/19 03:10:33;;;;;;;;;;;4.10;86.80;;;2.96;69.92;99105.16;6149949;23;20530;-74
2023/01/19 03:13:07;;;;;;;;;;;4.10;86.70;;;3.01;69.85;99108.81;6152700;23;19920;-75
2023/01/19 03:15:39;;;;;;;;;;;4.10;86.40;;;2.96;69.20;99110.44;6151414;23;19920;-72
2023/01/19 03:18:09;;;;;;;;;;;4.10;85.90;;;2.93;69.63;99106.38;6152111;23;19927;-72
2023/01/19 03:20:37;;;;;;;;;;;4.10;86.40;;;2.93;69.09;99106.38;6149708;23;19920;-72
2023/01/19 03:23:08;;;;;;;;;;;4.10;86.10;;;2.97;69.18;99118.13;6150280;23;20244;-72
2023/01/19 03:25:39;;;;;;;;;;;4.10;86.10;;;2.96;69.33;99108.59;6151681;23;20250;-74
2023/01/19 03:28:08;;;;;;;;;;;4.10;86.20;;;2.97;69.35;99115.50;6150390;23;20027;-75
2023/01/19 03:30:36;;;;;;;;;;;4.10;86.10;;;2.94;69.46;99118.53;6151024;23;19917;-75
2023/01/19 03:33:07;;;;;;;;;;;4.10;86.30;;;2.94;69.59;99105.38;6151987;23;19923;-75
2023/01/19 03:35:36;;;;;;;;;;;4.10;86.20;;;2.93;69.50;99111.66;6150724;23;19921;-72
2023/01/19 03:38:07;;;;;;;;;;;4.10;86.30;;;2.90;69.60;99100.69;6150484;23;20323;-75
2023/01/19 03:40:35;;;;;;;;;;;4.10;86.30;;;2.88;69.80;99103.53;6152001;23;19920;-74
2023/01/19 03:43:03;;;;;;;;;;;4.00;86.30;;;2.92;69.65;99107.38;6150660;23;19920;-74
2023/01/19 03:45:33;;;;;;;;;;;4.10;86.60;;;2.97;69.69;99120.75;6151885;23;20003;-74
2023/01/19 03:48:00;;;;;;;;;;;4.10;86.50;;;2.96;69.95;99113.06;6150387;23;19921;-72
2023/01/19 03:50:29;;;;;;;;;;;4.10;86.60;;;2.93;69.78;99111.66;6152088;23;19940;-75
2023/01/19 03:53:01;;;;;;;;;;;4.10;86.50;;;2.93;69.91;99114.28;6151006;23;19920;-72
2023/01/19 03:55:28;;;;;;;;;;;4.10;86.50;;;2.88;70.20;99119.31;6151276;23;19917;-75
2023/01/19 03:57:54;;;;;;;;;;;4.10;86.50;;;2.92;70.19;99111.81;6151292;23;19920;-75
2023/01/19 04:00:23;;;;;;;;;;;4.10;86.70;;;2.90;70.39;99119.94;6151890;23;20336;-71
2023/01/19 04:02:51;;;;;;;;;;;4.10;86.70;;;2.82;70.43;99120.06;6151843;23;20347;-75
2023/01/19 04:05:18;;;;;;;;;;;4.00;86.70;;;2.82;70.64;99122.72;6150831;23;19923;-72
2023/01/19 04:07:47;;;;;;;;;;;4.00;87.00;;;2.83;70.94;99116.44;6150866;23;19924;-74
2023/01/19 04:10:14;;;;;;;;;;;4.00;87.30;;;2.87;71.03;99119.50;6151446;23;19942;-75
2023/01/19 04:12:41;;;;;;;;;;;4.00;87.30;;;2.85;71.04;99117.06;6151814;23;19924;-75
2023/01/19 04:15:08;;;;;;;;;;;4.00;87.70;;;2.87;71.36;99115.03;6151918;23;19959;-75
2023/01/19 04:17:35;;;;;;;;;;;4.00;87.90;;;2.87;71.76;99116.84;6150965;23;20081;-74
2023/01/19 04:20:04;;;;;;;;;;;4.00;88.20;;;2.84;72.08;99120.72;6152097;23;19927;-72
2023/01/19 04:22:32;;;;;;;;;;;4.00;88.50;;;2.82;72.50;99120.88;6152025;23;19920;-74
2023/01/19 04:24:59;;;;;;;;;;;4.00;88.60;;;2.84;72.49;99111.00;6150979;23;20251;-75
2023/01/19 04:27:26;;;;;;;;;;;3.90;88.90;;;2.84;72.69;99116.25;6150102;23;19924;-75
2023/01/19 04:29:53;;;;;;;;;;;4.00;89.00;;;2.79;73.02;99109.94;6149308;23;19920;-74
2023/01/19 04:32:19;;;;;;;;;;;4.00;89.10;;;2.83;73.14;99119.91;6151873;23;19920;-72
2023/01/19 04:34:46;;;;;;;;;;;4.00;89.10;;;2.90;72.69;99111.22;6150565;23;20352;-72
2023/01/19 04:37:15;;;;;;;;;;;4.00;89.20;;;2.92;72.91;99117.09;6150684;23;19916;-72
2023/01/19 04:39:42;;;;;;;;;;;4.00;89.20;;;2.90;73.20;99116.47;6150270;23;20003;-75
2023/01/19 04:42:09;;;;;;;;;;;4.00;89.30;;;2.92;73.18;99103.91;6150946;23;19923;-74
2023/01/19 04:44:35;;;;;;;;;;;4.00;89.20;;;2.94;72.93;99109.81;6150712;23;19916;-72
2023/01/19 04:47:02;;;;;;;;;;;4.10;89.30;;;2.96;72.65;99105.97;6150874;23;20011;-74
2023/01/19 04:49:29;;;;;;;;;;;4.10;89.30;;;2.92;72.73;99107.38;6150737;23;19927;-72
2023/01/19 04:51:56;;;;;;;;;;;4.10;89.40;;;2.87;73.53;99101.06;6151594;23;19924;-72
2023/01/19 04:54:26;;;;;;;;;;;4.00;89.50;;;2.96;73.24;99113.06;6151065;23;19924;-75
2023/01/19 04:56:53;;;;;;;;;;;4.10;89.50;;;2.90;73.25;99109.41;6150509;23;20003;-72
2023/01/19 04:59:20;;;;;;;;;;;4.10;89.60;;;2.89;73.06;99112.22;6149835;23;19920;-75
2023/01/19 05:01:47;;;;;;;;;;;4.00;89.50;;;2.83;73.43;99114.63;6150732;23;19986;-75
2023/01/19 05:04:14;;;;;;;;;;;3.90;89.90;;;2.79;73.75;99105.50;6150535;23;19920;-75
2023/01/19 05:06:41;;;;;;;;;;;3.90;90.10;;;2.82;73.91;99104.28;6148207;23;19924;-75
2023/01/19 05:09:10;;;;;;;;;;;4.00;90.00;;;2.79;73.90;99112.59;6149816;23;20003;-74
2023/01/19 05:11:38;;;;;;;;;;;3.90;90.20;;;2.82;74.19;99123.50;6151670;23;19935;-76
2023/01/19 05:14:05;;;;;;;;;;;3.90;90.20;;;2.91;73.65;99113.66;6149190;23;19920;-77
2023/01/19 05:16:33;;;;;;;;;;;4.00;90.00;;;2.95;73.47;99124.59;6148532;23;20404;-76
2023/01/19 05:19:00;;;;;;;;;;;4.00;89.90;;;2.89;73.76;99126.22;6149541;23;19920;-76
2023/01/19 05:21:27;;;;;;;;;;;4.00;90.00;;;2.88;73.79;99129.00;6147244;23;19920;-74
2023/01/19 05:23:54;;;;;;;;;;;4.00;89.90;;;2.83;73.90;99126.97;6151021;23;19923;-77
2023/01/19 05:26:21;;;;;;;;;;;4.00;90.20;;;2.78;74.34;99122.31;6148967;23;19916;-74
2023/01/19 05:28:49;;;;;;;;;;;3.90;90.30;;;2.75;74.49;99135.84;6151193;23;19936;-74
2023/01/19 05:31:16;;;;;;;;;;;3.90;90.60;;;2.78;74.38;99140.72;6147542;23;19921;-74
2023/01/19 05:33:43;;;;;;;;;;;3.90;90.70;;;2.83;74.27;99140.97;6150029;23;19920;-76
2023/01/19 05:36:10;;;;;;;;;;;3.90;90.60;;;2.81;74.38;99139.50;6147479;23;19930;-77
2023/01/19 05:38:37;;;;;;;;;;;4.00;90.60;;;2.82;74.59;99136.69;6150764;23;20019;-74
2023/01/19 05:41:04;;;;;;;;;;;3.90;90.50;;;2.85;74.44;99148.66;6150728;23;19928;-76
2023/01/19 05:43:32;;;;;;;;;;;3.90;90.60;;;2.83;74.18;99148.84;6151141;23;20097;-74
2023/01/19 05:46:00;;;;;;;;;;;3.90;90.60;;;2.82;74.26;99146.41;6150402;23;19916;-76
2023/01/19 05:48:27;;;;;;;;;;;3.90;90.60;;;2.84;74.26;99147.03;6148127;23;19920;-75
2023/01/19 05:50:57;;;;;;;;;;;3.90;90.60;;;2.86;74.05;99146.84;6146983;23;20324;-75
2023/01/19 05:53:24;;;;;;;;;;;3.90;90.60;;;2.87;74.24;99146.63;6149747;23;20323;-75
2023/01/19 05:55:51;;;;;;;;;;;4.00;90.50;;;2.82;74.18;99149.84;6149835;23;19921;-76
2023/01/19 05:58:18;;;;;;;;;;;3.90;90.60;;;2.77;74.31;99140.91;6149664;23;20353;-82
2023/01/19 06:00:45;;;;;;;;;;;3.90;90.80;;;2.76;74.46;99149.81;6150895;23;19923;-80
2023/01/19 06:03:14;;;;;;;;;;;3.80;90.80;;;2.81;74.38;99156.13;6150823;23;19921;-80
2023/01/19 06:05:41;;;;;;;;;;;3.90;90.80;;;2.76;74.62;99158.53;6148937;23;19927;-91
2023/01/19 06:08:08;;;;;;;;;;;3.90;90.80;;;2.71;74.72;99155.66;6149990;23;20362;-79
2023/01/19 06:10:34;;;;;;;;;;;3.80;90.80;;;2.70;74.97;99156.66;6150612;23;19916;-80
2023/01/19 06:13:01;;;;;;;;;;;3.80;91.00;;;2.75;74.98;99166.63;6150561;23;19917;-79
2023/01/19 06:15:28;;;;;;;;;;;3.90;91.00;;;2.77;74.73;99169.84;6151020;23;19925;-79
2023/01/19 06:17:55;;;;;;;;;;;3.90;91.00;;;2.84;74.47;99168.09;6149723;23;19920;-79
2023/01/19 06:20:23;;;;;;;;;;;3.90;90.90;;;2.81;74.46;99165.84;6148736;23;19936;-79
2023/01/19 06:22:50;;;;;;;;;;;3.90;91.00;;;2.79;74.79;99158.16;6151805;23;19931;-79
2023/01/19 06:25:17;;;;;;;;;;;3.90;91.00;;;2.81;74.42;99160.56;6151847;23;20266;-79
2023/01/19 06:27:45;;;;;;;;;;;3.90;91.00;;;2.85;74.45;99161.81;6151246;23;19923;-79
2023/01/19 06:30:12;;;;;;;;;;;3.90;90.90;;;2.89;74.25;99175.41;6152187;23;19924;-78
2023/01/19 06:32:39;;;;;;;;;;;3.90;90.80;;;2.84;74.38;99176.00;6152724;23;19927;-79
2023/01/19 06:35:07;;;;;;;;;;;3.90;90.70;;;2.86;74.31;99181.06;6152486;23;19921;-78
2023/01/19 06:37:35;;;;;;;;;;;3.90;90.70;;;2.87;74.60;99175.59;6152312;23;19920;-82
2023/01/19 06:40:03;;;;;;;;;;;3.90;91.00;;;2.87;74.39;99180.03;6153180;23;19927;-77
2023/01/19 06:42:30;;;;;;;;;;;3.90;90.90;;;2.82;74.24;99183.25;6153261;23;19917;-77
2023/01/19 06:44:57;;;;;;;;;;;3.90;90.90;;;2.85;74.56;99190.78;6152641;23;19999;-77
2023/01/19 06:47:24;;;;;;;;;;;3.90;90.80;;;2.88;74.28;99181.66;6151624;23;19927;-78
2023/01/19 06:49:51;;;;;;;;;;;3.90;90.80;;;2.87;74.14;99190.59;6152750;23;20366;-78
2023/01/19 06:52:19;;;;;;;;;;;3.90;90.80;;;2.85;74.47;99182.88;6152273;23;19925;-78
2023/01/19 06:54:47;;;;;;;;;;;3.90;91.00;;;2.81;74.41;99200.06;6151967;23;19939;-80
2023/01/19 06:57:14;;;;;;;;;;;3.90;91.00;;;2.82;74.87;99199.06;6150058;23;19920;-80
2023/01/19 06:59:41;;;;;;;;;;;3.90;91.20;;;2.89;74.66;99207.81;6151837;23;19927;-79
2023/01/19 07:02:09;;;;;;;;;;;3.90;91.00;;;2.91;74.68;99205.00;6151361;23;19924;-80
2023/01/19 07:04:36;;;;;;;;;;;4.00;90.90;;;2.89;74.33;99215.72;6152793;23;19955;-80
2023/01/19 07:07:03;;;;;;;;;;;4.00;90.60;;;2.82;74.57;99217.47;6151765;23;20411;-80
2023/01/19 07:09:30;;;;;;;;;;;3.90;90.80;;;2.80;74.79;99220.31;6153042;23;20028;-80
2023/01/19 07:11:58;;;;;;;;;;;4.00;90.80;;;2.83;74.85;99216.47;6152460;23;19927;-79
2023/01/19 07:14:29;;;;;;;;;;;4.00;90.80;;;2.75;74.79;99240.31;6151329;23;20312;-80
2023/01/19 07:16:56;;;;;;;;;;;3.90;91.00;;;2.71;74.98;99242.53;6151718;23;19928;-80
2023/01/19 07:19:23;;;;;;;;;;;3.90;91.20;;;2.72;75.61;99245.97;6152847;23;19920;-80
2023/01/19 07:21:50;;;;;;;;;;;3.90;91.40;;;2.77;75.08;99262.81;6152437;23;20361;-80
2023/01/19 07:24:17;;;;;;;;;;;3.90;91.40;;;2.81;75.05;99258.78;6153046;23;19973;-80
2023/01/19 07:26:44;;;;;;;;;;;3.90;91.30;;;2.81;75.27;99271.97;6152019;23;19921;-80
2023/01/19 07:29:12;;;;;;;;;;;3.90;91.30;;;2.89;75.04;99270.22;6152567;23;19916;-80
2023/01/19 07:31:39;;;;;;;;;;;4.00;91.20;;;2.90;74.78;99258.66;6152035;23;20410;-80
2023/01/19 07:34:06;;;;;;;;;;;4.00;91.10;;;2.94;74.83;99265.19;6152748;23;19924;-80
2023/01/19 07:36:34;;;;;;;;;;;4.00;91.00;;;3.01;74.75;99260.75;6151361;23;20662;-79
2023/01/19 07:39:01;;;;;;;;;;;4.10;90.90;;;3.05;74.56;99259.38;6152293;23;19920;-80
2023/01/19 07:41:28;;;;;;;;;;;4.20;90.80;;;3.07;74.08;99263.47;6152093;23;20019;-79
2023/01/19 07:43:55;;;;;;;;;;;4.10;90.50;;;3.05;74.58;99262.81;6152748;23;19923;-80
2023/01/19 07:46:23;;;;;;;;;;;4.10;90.70;;;3.13;74.11;99274.22;6152258;23;19920;-80
2023/01/19 07:48:50;;;;;;;;;;;4.20;90.50;;;3.11;74.07;99284.94;6152014;23;20378;-80
2023/01/19 07:51:17;;;;;;;;;;;4.20;90.50;;;3.13;74.01;99285.56;6152175;23;19928;-80
2023/01/19 07:53:44;;;;;;;;;;;4.20;90.40;;;3.03;73.88;99291.19;6152671;23;19927;-80
2023/01/19 07:56:12;;;;;;;;;;;4.00;90.30;;;2.95;74.66;99293.94;6152104;23;20308;-80
2023/01/19 07:58:39;;;;;;;;;;;4.10;90.80;;;3.02;74.60;99302.69;6151205;23;19929;-80
2023/01/19 08:01:07;;;;;;;;;;;4.10;90.80;;;2.99;74.52;99300.47;6151332;23;19917;-80
2023/01/19 08:03:35;;;;;;;;;;;4.10;90.80;;;3.00;74.67;99311.81;6152128;23;19921;-80
2023/01/19 08:06:03;;;;;;;;;;;4.10;90.80;;;2.99;74.73;99313.63;6151481;23;19927;-80
2023/01/19 08:08:31;;;;;;;;;;;4.10;91.00;;;2.94;74.58;99318.66;6152418;23;19916;-80
2023/01/19 08:10:58;;;;;;;;;;;4.10;91.20;;;2.96;75.08;99327.16;6151946;23;19920;-80
2023/01/19 08:13:25;;;;;;;;;;;4.10;91.20;;;2.93;74.87;99327.56;6152070;23;19920;-80
2023/01/19 08:15:53;;;;;;;;;;;4.10;91.20;;;2.98;75.23;99332.28;6151513;23;19921;-80
2023/01/19 08:18:20;;;;;;;;;;;4.10;91.30;;;3.02;74.77;99342.19;6151927;23;19920;-80
2023/01/19 08:20:49;;;;;;;;;;;4.10;91.20;;;3.04;75.02;99334.13;6151980;23;19959;-80
2023/01/19 08:23:16;;;;;;;;;;;4.10;91.00;;;3.09;74.72;99342.28;6151944;23;19923;-80
2023/01/19 08:25:44;;;;;;;;;;;4.20;91.00;;;3.11;74.71;99348.16;6151986;23;20354;-80
2023/01/19 08:28:12;;;;;;;;;;;4.30;91.00;;;3.04;74.73;99350.75;6151829;23;19948;-80
2023/01/19 08:30:39;;;;;;;;;;;4.10;91.00;;;3.01;75.19;99353.75;6152279;23;19920;-80
2023/01/19 08:33:07;;;;;;;;;;;4.10;91.20;;;3.04;75.00;99360.47;6151649;23;19916;-80
2023/01/19 08:35:35;;;;;;;;;;;4.10;91.20;;;3.05;74.92;99367.38;6150107;23;19920;-80
2023/01/19 08:38:04;;;;;;;;;;;4.10;91.20;;;3.08;75.00;99365.16;6151686;23;19923;-80
2023/01/19 08:40:33;;;;;;;;;;;4.10;91.30;;;3.13;74.89;99371.69;6151669;23;19916;-79
2023/01/19 08:43:03;;;;;;;;;;;4.20;91.20;;;3.15;74.85;99378.38;6151455;23;19920;-79
2023/01/19 08:45:30;;;;;;;;;;;4.20;91.20;;;3.14;74.83;99379.41;6151525;23;19931;-79
2023/01/19 08:47:58;;;;;;;;;;;4.20;91.10;;;3.15;74.91;99378.38;6151479;23;19920;-79
2023/01/19 08:50:26;;;;;;;;;;;4.20;91.20;;;3.13;74.94;99380.41;6152717;23;19927;-79
2023/01/19 08:52:55;;;;;;;;;;;4.20;91.20;;;3.18;74.97;99390.38;6151827;23;19927;-85
2023/01/19 08:55:23;;;;;;;;;;;4.20;91.40;;;3.10;75.19;99396.56;6150220;23;19916;-79
2023/01/19 08:57:51;;;;;;;;;;;4.20;91.40;;;3.12;75.11;99399.81;6147984;23;19927;-79
2023/01/19 09:00:19;;;;;;;;;;;4.20;91.50;;;3.15;75.14;99409.19;6148066;23;19921;-79
2023/01/19 09:02:46;;;;;;;;;;;4.20;91.50;;;3.19;74.97;99410.44;6150710;23;19920;-80
2023/01/19 09:05:13;;;;;;;;;;;4.20;91.40;;;3.23;75.17;99416.97;6151255;23;19921;-79
2023/01/19 09:07:40;;;;;;;;;;;4.20;91.40;;;3.25;74.75;99409.69;6150748;23;19936;-79
2023/01/19 09:10:09;;;;;;;;;;;4.30;91.40;;;3.22;74.91;99416.16;6151222;23;20362;-79
2023/01/19 09:12:37;;;;;;;;;;;4.30;91.30;;;3.22;75.22;99434.59;6151808;23;19927;-79
2023/01/19 09:15:05;;;;;;;;;;;4.30;91.40;;;3.27;75.04;99428.72;6151465;23;19948;-80
2023/01/19 09:17:32;;;;;;;;;;;4.30;91.40;;;3.31;74.98;99424.72;6150960;23;19923;-79
2023/01/19 09:19:59;;;;;;;;;;;4.40;91.20;;;3.34;74.77;99434.88;6151047;23;19928;-79
2023/01/19 09:22:26;;;;;;;;;;;4.40;91.20;;;3.35;74.66;99431.25;6151746;23;20414;-79
2023/01/19 09:24:53;;;;;;;;;;;4.40;91.10;;;3.39;74.55;99434.31;6149700;23;19921;-79
2023/01/19 09:27:20;;;;;;;;;;;4.40;91.00;;;3.35;74.69;99441.78;6150904;23;19963;-79
2023/01/19 09:29:51;;;;;;;;;;;4.40;91.00;;;3.37;74.84;99434.53;6150929;23;19920;-79
2023/01/19 09:32:19;;;;;;;;;;;4.40;91.20;;;3.38;74.77;99433.50;6151452;23;19935;-79
2023/01/19 09:34:46;;;;;;;;;;;4.40;91.20;;;3.39;74.79;99444.88;6151104;23;19920;-79
2023/01/19 09:37:14;;;;;;;;;;;4.40;91.30;;;3.39;74.92;99453.59;6151176;23;20003;-79
2023/01/19 09:39:41;;;;;;;;;;;4.40;91.20;;;3.38;74.65;99454.59;6151212;23;20050;-79
2023/01/19 09:42:15;;;;;;;;;;;4.40;91.40;;;3.36;75.22;99443.41;6151198;23;19920;-79
2023/01/19 09:44:43;;;;;;;;;;;4.40;91.60;;;3.35;75.50;99457.59;6151114;23;19916;-79
2023/01/19 09:47:16;;;;;;;;;;;4.40;91.60;;;3.36;75.11;99460.03;6151056;23;19944;-79
2023/01/19 09:49:45;;;;;;;;;;;4.40;91.70;;;3.31;75.72;99465.06;6151048;23;19944;-79
2023/01/19 09:52:13;;;;;;;;;;;4.40;91.70;;;3.33;75.82;99468.34;6151203;23;20345;-79
2023/01/19 09:54:46;;;;;;;;;;;4.40;91.80;;;3.33;75.70;99454.34;6150735;23;19920;-79
2023/01/19 09:57:13;;;;;;;;;;;4.40;91.80;;;3.35;75.81;99470.78;6150798;23;20324;-79
2023/01/19 09:59:42;;;;;;;;;;;4.40;91.80;;;3.34;75.43;99466.50;6151233;23;19990;-79
2023/01/19 10:02:32;;;;;;;;;;;4.40;91.80;;;3.32;75.82;99477.25;6150892;23;19928;-79
2023/01/19 10:05:01;;;;;;;;;;;4.40;91.90;;;3.37;75.58;99479.31;6151375;23;19974;-79
2023/01/19 10:07:52;;;;;;;;;;;4.40;91.80;;;3.40;75.56;99486.84;6150934;23;19924;-79
2023/01/19 10:10:21;;;;;;;;;;;4.40;91.80;;;3.42;75.57;99492.75;6150944;23;19920;-79
2023/01/19 10:13:13;;;;;;;;;;;4.50;91.80;;;3.42;75.43;99494.56;6151170;23;20002;-79
2023/01/19 10:15:52;;;;;;;;;;;4.50;91.80;;;3.42;75.35;99494.56;6151329;23;19944;-79
2023/01/19 10:18:24;;;;;;;;;;;4.50;91.80;;;3.42;75.49;99492.75;6151022;23;19920;-79
2023/01/19 10:20:54;;;;;;;;;;;4.50;91.70;;;3.45;75.22;99496.81;6149095;23;19946;-79
2023/01/19 10:23:29;;;;;;;;;;;4.50;91.80;;;3.42;75.23;99499.84;6149076;23;19926;-79
2023/01/19 10:25:59;;;;;;;;;;;4.50;91.80;;;3.41;75.24;99496.34;6151120;23;19920;-79
2023/01/19 10:28:26;;;;;;;;;;;4.50;91.90;;;3.41;75.88;99499.00;6151247;23;20015;-79
2023/01/19 10:30:54;;;;;;;;;;;4.50;91.90;;;3.45;75.30;99494.97;6150744;23;20003;-79
2023/01/19 10:33:23;;;;;;;;;;;4.50;91.80;;;3.43;75.41;99502.28;6150867;23;19987;-79
2023/01/19 10:35:50;;;;;;;;;;;4.50;91.90;;;3.41;75.51;99506.09;6151491;23;20311;-79
2023/01/19 10:38:20;;;;;;;;;;;4.50;91.90;;;3.42;75.94;99500.66;6150703;23;19920;-79
2023/01/19 10:40:54;;;;;;;;;;;4.50;92.00;;;3.40;75.58;99499.19;6150118;23;19983;-79
2023/01/19 10:43:40;;;;;;;;;;;4.50;92.00;;;3.37;76.03;99510.94;6150693;23;19921;-79
2023/01/19 10:46:16;;;;;;;;;;;4.50;92.10;;;3.40;75.80;99507.09;6150694;23;19931;-79
2023/01/19 10:48:47;;;;;;;;;;;4.50;92.20;;;3.42;75.76;99511.19;6150710;23;19971;-79
2023/01/19 10:51:14;;;;;;;;;;;4.50;92.10;;;3.44;76.25;99496.00;6150816;23;20411;-79
2023/01/19 10:53:44;;;;;;;;;;;4.50;92.20;;;3.50;76.06;99515.50;6150689;23;20003;-79
2023/01/19 10:56:17;;;;;;;;;;;4.50;92.20;;;3.52;75.74;99505.59;6149721;23;19923;-79
2023/01/19 10:58:44;;;;;;;;;;;4.60;92.10;;;3.55;75.75;99518.38;6150808;23;20350;-79
2023/01/19 11:01:17;;;;;;;;;;;4.60;92.10;;;3.52;75.71;99524.88;6150042;23;19920;-79
2023/01/19 11:03:45;;;;;;;;;;;4.60;92.10;;;3.50;75.98;99520.78;6151313;23;19927;-79
2023/01/19 11:06:21;;;;;;;;;;;4.50;92.20;;;3.52;75.77;99524.88;6151761;23;19927;-79
2023/01/19 11:08:50;;;;;;;;;;;4.60;92.20;;;3.56;75.84;99525.28;6152716;23;20003;-79
2023/01/19 11:11:18;;;;;;;;;;;4.60;92.20;;;3.58;75.86;99518.84;6152262;23;19921;-79
2023/01/19 11:13:45;;;;;;;;;;;4.60;92.20;;;3.63;76.10;99518.28;6152856;23;19927;-79
2023/01/19 11:16:19;;;;;;;;;;;4.70;92.20;;;3.64;75.73;99519.06;6152129;23;20176;-79
2023/01/19 11:18:52;;;;;;;;;;;4.70;92.10;;;3.60;75.92;99518.63;6151998;23;19999;-79
2023/01/19 11:21:22;;;;;;;;;;;4.70;91.90;;;3.65;76.05;99524.16;6152484;23;19917;-79
2023/01/19 11:23:51;;;;;;;;;;;4.70;91.90;;;3.68;75.72;99521.16;6152600;23;20332;-79
2023/01/19 11:26:26;;;;;;;;;;;4.80;92.00;;;3.71;75.47;99518.16;6152237;23;19920;-79
2023/01/19 11:28:54;;;;;;;;;;;4.80;91.80;;;3.72;75.83;99521.59;6152074;23;19920;-79
2023/01/19 11:31:31;;;;;;;;;;;4.80;91.80;;;3.74;75.34;99520.38;6150631;23;19920;-79
2023/01/19 11:34:01;;;;;;;;;;;4.80;91.80;;;3.75;75.32;99521.19;6152948;23;20350;-79
2023/01/19 11:36:30;;;;;;;;;;;4.80;91.90;;;3.77;75.59;99521.84;6152199;23;19921;-79
2023/01/19 11:38:58;;;;;;;;;;;4.80;91.80;;;3.75;75.51;99527.28;6151635;23;20362;-79
2023/01/19 11:41:27;;;;;;;;;;;4.80;91.80;;;3.79;75.29;99530.34;6151446;23;19935;-79
2023/01/19 11:43:57;;;;;;;;;;;4.80;91.60;;;3.77;75.09;99524.47;6152714;23;19917;-79
2023/01/19 11:46:28;;;;;;;;;;;4.80;91.60;;;3.78;75.18;99521.63;6152014;23;19917;-79
2023/01/19 11:49:00;;;;;;;;;;;4.90;91.60;;;3.80;75.15;99526.72;6152430;23;19927;-80
2023/01/19 11:51:34;;;;;;;;;;;4.90;91.60;;;3.82;75.23;99527.34;6151793;23;20022;-81
2023/01/19 11:54:02;;;;;;;;;;;4.90;91.60;;;3.83;75.27;99529.78;6155556;23;19924;-81